Impacts METAR Board
IDs:

KSLC - Salt Lake City Intl, UT, US

Updated at: 1300 UTC 25 Jun 2019
Potential Impact None Slight Moderate High
Time 25/01Z 25/02Z 25/03Z 25/04Z 25/05Z 25/06Z 25/07Z 25/08Z 25/09Z 25/10Z 25/11Z 25/12Z 25/13Z
Temp83 82 76 75 72 70 69 67 66 66 67 64 67
Dewpt42 41 47 48 44 44 41 42 41 41 41 44 44
Altim29.87 29.86 29.86 29.86 29.87 29.87 29.87 29.87 29.85 29.85 29.85 29.86 29.86
VIS10 10 10 10 10 10 10 10 10 10 10 10 10
CIG-- -- -- -- -- -- -- -- -- -- -- 130 130
CoverSCTSCTSCTSCTSCTSCTSCTFEWFEWSCTSCTBKNBKN
FltCatVFRVFRVFRVFRVFRVFRVFRVFRVFRVFRVFRVFRVFR
WX--------------------------
WDir303503500140100130150150150140110150
WSpd10 7 5 0 5 6 7 8 8 6 8 6 9
WGst-- -- -- -- -- -- -- -- -- -- -- -- --
Raw hourly METARs
KSLC 250054Z 03010KT 10SM FEW095 SCT200 28/06 A2987 RMK AO2 SLP064 T02830056
KSLC 250154Z 35007KT 10SM FEW095 SCT200 28/05 A2986 RMK AO2 SLP060 T02780050
KSLC 250254Z 35005KT 10SM FEW100 SCT220 24/08 A2986 RMK AO2 SLP059 T02440083 56008
KSLC 250354Z 00000KT 10SM SCT100 SCT220 24/09 A2986 RMK AO2 SLP059 T02390089
KSLC 250454Z 14005KT 10SM FEW100 SCT220 22/07 A2987 RMK AO2 SLP061 T02220067
KSLC 250554Z 10006KT 10SM FEW100 SCT220 21/07 A2987 RMK AO2 SLP061 T02110067 10283 20206 51003
KSLC 250654Z 13007KT 10SM FEW100 SCT220 21/05 A2987 RMK AO2 SLP061 T02060050 402890150
KSLC 250754Z 15008KT 10SM FEW220 19/06 A2987 RMK AO2 SLP060 T01940056
KSLC 250854Z 15008KT 10SM FEW220 19/05 A2985 RMK AO2 SLP055 T01890050 58005
KSLC 250954Z 15006KT 10SM SCT220 19/05 A2985 RMK AO2 SLP056 T01890050
KSLC 251054Z 14008KT 10SM FEW130 SCT220 19/05 A2985 RMK AO2 SLP054 T01940050
KSLC 251154Z 11006KT 10SM BKN130 BKN180 18/07 A2986 RMK AO2 SLP056 T01780067 10217 20178 53001
KSLC 251254Z 15009KT 10SM BKN130 BKN150 19/07 A2986 RMK AO2 SLP056 T01940067



Page loaded:  13:56 UTC  |   06:56 AM Pacific  |   07:56 AM Mountain  |   08:56 AM Central  |   09:56 AM Eastern

 

ADVISORIES

FORECASTS

FORECASTS

OBSERVATIONS

USER TOOLS

ABOUT US